Terminal Aerodrome Forecast
Issued by NWS

Home | Current Version | Previous Version | Graphics & Text | Print | Product List | Glossary On
Versions: 1 2 3 4 5 6 7 8 9 10 11 12 13
000
FTUS45 KGGW 092325
TAFSDY
TAF
KSDY 092325Z 1000/1024 29009KT P6SM FEW200 WS020/31050KT
     FM100500 28013G19KT P6SM SCT150 WS020/32040KT
     FM101500 26009KT P6SM SCT150 WS020/32035KT=

USA.gov is the U.S. government's official web portal to all federal, state and local government web resources and services.